sensor_id;sensor_type;location;lat;lon;timestamp;P1;durP1;ratioP1;P2;durP2;ratioP2
44026;SDS011;29696;55.698;37.460;2023-05-10T00:01:55;19.40;;;6.07;;
44026;SDS011;29696;55.698;37.460;2023-05-10T00:04:22;12.97;;;5.57;;
44026;SDS011;29696;55.698;37.460;2023-05-10T00:06:48;11.77;;;5.97;;
44026;SDS011;29696;55.698;37.460;2023-05-10T00:09:14;10.97;;;5.50;;
44026;SDS011;29696;55.698;37.460;2023-05-10T00:11:41;12.83;;;5.57;;
44026;SDS011;29696;55.698;37.460;2023-05-10T00:14:07;10.63;;;5.73;;
44026;SDS011;29696;55.698;37.460;2023-05-10T00:16:34;11.77;;;6.23;;
44026;SDS011;29696;55.698;37.460;2023-05-10T00:19:00;12.43;;;6.03;;
44026;SDS011;29696;55.698;37.460;2023-05-10T00:21:27;10.40;;;6.63;;
44026;SDS011;29696;55.698;37.460;2023-05-10T00:23:54;14.33;;;6.30;;
44026;SDS011;29696;55.698;37.460;2023-05-10T00:26:21;10.73;;;5.93;;
44026;SDS011;29696;55.698;37.460;2023-05-10T00:28:51;7.97;;;5.37;;
44026;SDS011;29696;55.698;37.460;2023-05-10T00:31:17;11.87;;;6.20;;
44026;SDS011;29696;55.698;37.460;2023-05-10T00:33:44;9.77;;;6.73;;
44026;SDS011;29696;55.698;37.460;2023-05-10T00:36:11;13.37;;;7.00;;
44026;SDS011;29696;55.698;37.460;2023-05-10T00:38:37;13.50;;;6.17;;
44026;SDS011;29696;55.698;37.460;2023-05-10T00:41:04;10.67;;;5.80;;
44026;SDS011;29696;55.698;37.460;2023-05-10T00:43:33;10.03;;;6.77;;
44026;SDS011;29696;55.698;37.460;2023-05-10T00:45:59;12.07;;;5.77;;
44026;SDS011;29696;55.698;37.460;2023-05-10T00:48:26;20.53;;;8.70;;
44026;SDS011;29696;55.698;37.460;2023-05-10T00:50:54;10.93;;;5.33;;
44026;SDS011;29696;55.698;37.460;2023-05-10T00:53:21;14.33;;;7.33;;
44026;SDS011;29696;55.698;37.460;2023-05-10T00:55:47;10.07;;;5.07;;
44026;SDS011;29696;55.698;37.460;2023-05-10T00:58:14;15.43;;;7.47;;
44026;SDS011;29696;55.698;37.460;2023-05-10T01:00:41;9.70;;;5.47;;
44026;SDS011;29696;55.698;37.460;2023-05-10T01:03:10;11.90;;;6.83;;
44026;SDS011;29696;55.698;37.460;2023-05-10T01:05:37;16.47;;;6.73;;
44026;SDS011;29696;55.698;37.460;2023-05-10T01:08:04;10.87;;;5.50;;
44026;SDS011;29696;55.698;37.460;2023-05-10T01:10:30;21.47;;;7.57;;
44026;SDS011;29696;55.698;37.460;2023-05-10T01:12:57;11.63;;;6.13;;
44026;SDS011;29696;55.698;37.460;2023-05-10T01:15:25;9.40;;;6.57;;
44026;SDS011;29696;55.698;37.460;2023-05-10T01:17:52;20.60;;;6.00;;
44026;SDS011;29696;55.698;37.460;2023-05-10T01:20:19;13.53;;;7.67;;
44026;SDS011;29696;55.698;37.460;2023-05-10T01:29:24;13.70;;;6.00;;
44026;SDS011;29696;55.698;37.460;2023-05-10T01:32:24;14.27;;;5.83;;
44026;SDS011;29696;55.698;37.460;2023-05-10T01:35:37;10.80;;;5.90;;
44026;SDS011;29696;55.698;37.460;2023-05-10T01:38:17;12.37;;;6.33;;
44026;SDS011;29696;55.698;37.460;2023-05-10T01:41:13;15.47;;;5.83;;
44026;SDS011;29696;55.698;37.460;2023-05-10T01:47:20;10.43;;;5.70;;
44026;SDS011;29696;55.698;37.460;2023-05-10T01:52:22;12.20;;;5.90;;
44026;SDS011;29696;55.698;37.460;2023-05-10T01:55:00;12.87;;;5.00;;
44026;SDS011;29696;55.698;37.460;2023-05-10T01:57:34;7.37;;;4.33;;
44026;SDS011;29696;55.698;37.460;2023-05-10T02:00:04;11.03;;;5.63;;
44026;SDS011;29696;55.698;37.460;2023-05-10T02:02:46;34.07;;;6.60;;
44026;SDS011;29696;55.698;37.460;2023-05-10T02:05:14;9.83;;;6.40;;
44026;SDS011;29696;55.698;37.460;2023-05-10T02:07:42;13.20;;;5.87;;
44026;SDS011;29696;55.698;37.460;2023-05-10T02:10:11;10.87;;;5.70;;
44026;SDS011;29696;55.698;37.460;2023-05-10T02:12:41;15.10;;;6.43;;
44026;SDS011;29696;55.698;37.460;2023-05-10T02:15:10;10.10;;;5.70;;
44026;SDS011;29696;55.698;37.460;2023-05-10T02:17:39;9.53;;;5.17;;
44026;SDS011;29696;55.698;37.460;2023-05-10T02:20:08;12.73;;;6.53;;
44026;SDS011;29696;55.698;37.460;2023-05-10T02:22:36;8.97;;;5.90;;
44026;SDS011;29696;55.698;37.460;2023-05-10T02:25:04;12.90;;;5.43;;
44026;SDS011;29696;55.698;37.460;2023-05-10T02:27:32;14.00;;;5.27;;
44026;SDS011;29696;55.698;37.460;2023-05-10T02:30:00;14.37;;;6.47;;
44026;SDS011;29696;55.698;37.460;2023-05-10T02:32:32;14.00;;;5.87;;
44026;SDS011;29696;55.698;37.460;2023-05-10T02:35:00;8.57;;;5.23;;
44026;SDS011;29696;55.698;37.460;2023-05-10T02:37:31;7.70;;;5.20;;
44026;SDS011;29696;55.698;37.460;2023-05-10T02:39:58;16.30;;;5.90;;
44026;SDS011;29696;55.698;37.460;2023-05-10T02:42:26;8.73;;;5.43;;
44026;SDS011;29696;55.698;37.460;2023-05-10T02:44:57;9.30;;;6.33;;
44026;SDS011;29696;55.698;37.460;2023-05-10T02:47:33;20.40;;;6.57;;
44026;SDS011;29696;55.698;37.460;2023-05-10T02:50:00;20.70;;;6.93;;
44026;SDS011;29696;55.698;37.460;2023-05-10T02:52:28;11.37;;;4.67;;
44026;SDS011;29696;55.698;37.460;2023-05-10T02:55:00;8.77;;;4.40;;
44026;SDS011;29696;55.698;37.460;2023-05-10T02:57:34;18.37;;;5.67;;
44026;SDS011;29696;55.698;37.460;2023-05-10T03:00:04;14.30;;;5.73;;
44026;SDS011;29696;55.698;37.460;2023-05-10T03:02:33;14.40;;;5.47;;
44026;SDS011;29696;55.698;37.460;2023-05-10T03:05:00;11.43;;;4.70;;
44026;SDS011;29696;55.698;37.460;2023-05-10T03:07:27;14.27;;;6.13;;
44026;SDS011;29696;55.698;37.460;2023-05-10T03:09:53;14.37;;;6.40;;
44026;SDS011;29696;55.698;37.460;2023-05-10T03:15:46;9.10;;;4.57;;
44026;SDS011;29696;55.698;37.460;2023-05-10T03:18:37;16.00;;;5.37;;
44026;SDS011;29696;55.698;37.460;2023-05-10T03:21:11;13.07;;;5.37;;
44026;SDS011;29696;55.698;37.460;2023-05-10T03:23:42;13.87;;;5.07;;
44026;SDS011;29696;55.698;37.460;2023-05-10T03:26:17;8.80;;;5.40;;
44026;SDS011;29696;55.698;37.460;2023-05-10T03:29:05;10.67;;;4.20;;
44026;SDS011;29696;55.698;37.460;2023-05-10T03:31:33;9.67;;;4.30;;
44026;SDS011;29696;55.698;37.460;2023-05-10T03:34:00;10.60;;;5.40;;
44026;SDS011;29696;55.698;37.460;2023-05-10T03:36:27;25.13;;;5.53;;
44026;SDS011;29696;55.698;37.460;2023-05-10T03:38:54;11.53;;;4.43;;
44026;SDS011;29696;55.698;37.460;2023-05-10T03:41:21;7.27;;;4.53;;
44026;SDS011;29696;55.698;37.460;2023-05-10T03:43:48;10.80;;;5.10;;
44026;SDS011;29696;55.698;37.460;2023-05-10T03:46:14;15.07;;;6.33;;
44026;SDS011;29696;55.698;37.460;2023-05-10T03:48:41;12.30;;;5.93;;
44026;SDS011;29696;55.698;37.460;2023-05-10T03:51:07;12.20;;;5.47;;
44026;SDS011;29696;55.698;37.460;2023-05-10T03:53:34;14.30;;;4.87;;
44026;SDS011;29696;55.698;37.460;2023-05-10T03:56:00;9.17;;;4.67;;
44026;SDS011;29696;55.698;37.460;2023-05-10T03:58:27;16.10;;;4.60;;
44026;SDS011;29696;55.698;37.460;2023-05-10T04:00:53;18.07;;;6.10;;
44026;SDS011;29696;55.698;37.460;2023-05-10T04:03:20;7.30;;;4.07;;
44026;SDS011;29696;55.698;37.460;2023-05-10T04:05:47;11.30;;;4.27;;
44026;SDS011;29696;55.698;37.460;2023-05-10T04:08:14;9.57;;;4.37;;
44026;SDS011;29696;55.698;37.460;2023-05-10T04:10:42;15.30;;;5.37;;
44026;SDS011;29696;55.698;37.460;2023-05-10T04:13:09;5.93;;;4.57;;
44026;SDS011;29696;55.698;37.460;2023-05-10T04:15:35;18.93;;;6.37;;
44026;SDS011;29696;55.698;37.460;2023-05-10T04:18:02;7.77;;;3.73;;
44026;SDS011;29696;55.698;37.460;2023-05-10T04:20:28;11.53;;;4.87;;
44026;SDS011;29696;55.698;37.460;2023-05-10T04:22:55;13.57;;;4.13;;
44026;SDS011;29696;55.698;37.460;2023-05-10T04:25:21;11.20;;;4.57;;
44026;SDS011;29696;55.698;37.460;2023-05-10T04:27:48;10.30;;;4.50;;
44026;SDS011;29696;55.698;37.460;2023-05-10T04:30:14;13.23;;;5.03;;
44026;SDS011;29696;55.698;37.460;2023-05-10T04:32:41;14.10;;;4.53;;
44026;SDS011;29696;55.698;37.460;2023-05-10T04:35:07;7.03;;;3.97;;
44026;SDS011;29696;55.698;37.460;2023-05-10T04:37:35;6.40;;;3.80;;
44026;SDS011;29696;55.698;37.460;2023-05-10T04:40:02;8.97;;;4.07;;
44026;SDS011;29696;55.698;37.460;2023-05-10T04:42:30;8.93;;;3.70;;
44026;SDS011;29696;55.698;37.460;2023-05-10T04:44:56;13.43;;;4.23;;
44026;SDS011;29696;55.698;37.460;2023-05-10T04:47:23;5.93;;;3.80;;
44026;SDS011;29696;55.698;37.460;2023-05-10T04:49:49;4.73;;;3.37;;
44026;SDS011;29696;55.698;37.460;2023-05-10T04:52:16;12.77;;;4.97;;
44026;SDS011;29696;55.698;37.460;2023-05-10T04:54:43;11.63;;;4.07;;
44026;SDS011;29696;55.698;37.460;2023-05-10T04:57:10;9.97;;;4.10;;
44026;SDS011;29696;55.698;37.460;2023-05-10T04:59:36;10.17;;;4.60;;
44026;SDS011;29696;55.698;37.460;2023-05-10T05:02:03;6.30;;;4.13;;
44026;SDS011;29696;55.698;37.460;2023-05-10T05:04:31;6.50;;;3.63;;
44026;SDS011;29696;55.698;37.460;2023-05-10T05:06:57;5.60;;;3.63;;
44026;SDS011;29696;55.698;37.460;2023-05-10T05:09:23;9.30;;;4.33;;
44026;SDS011;29696;55.698;37.460;2023-05-10T05:11:50;6.80;;;3.70;;
44026;SDS011;29696;55.698;37.460;2023-05-10T05:14:16;12.90;;;4.57;;
44026;SDS011;29696;55.698;37.460;2023-05-10T05:16:43;13.73;;;5.30;;
44026;SDS011;29696;55.698;37.460;2023-05-10T05:19:09;13.40;;;4.13;;
44026;SDS011;29696;55.698;37.460;2023-05-10T05:21:35;7.90;;;4.33;;
44026;SDS011;29696;55.698;37.460;2023-05-10T05:24:02;15.70;;;4.23;;
44026;SDS011;29696;55.698;37.460;2023-05-10T05:26:28;6.20;;;3.13;;
44026;SDS011;29696;55.698;37.460;2023-05-10T05:28:55;9.40;;;3.70;;
44026;SDS011;29696;55.698;37.460;2023-05-10T05:31:21;10.50;;;3.50;;
44026;SDS011;29696;55.698;37.460;2023-05-10T05:33:47;16.08;;;4.30;;
44026;SDS011;29696;55.698;37.460;2023-05-10T05:36:14;22.35;;;5.05;;
44026;SDS011;29696;55.698;37.460;2023-05-10T05:38:40;8.32;;;4.40;;
44026;SDS011;29696;55.698;37.460;2023-05-10T05:41:07;9.50;;;3.33;;
44026;SDS011;29696;55.698;37.460;2023-05-10T05:43:34;4.20;;;2.42;;
44026;SDS011;29696;55.698;37.460;2023-05-10T05:46:00;8.20;;;2.60;;
44026;SDS011;29696;55.698;37.460;2023-05-10T05:48:26;7.95;;;3.40;;
44026;SDS011;29696;55.698;37.460;2023-05-10T05:50:55;6.20;;;3.08;;
44026;SDS011;29696;55.698;37.460;2023-05-10T05:53:25;12.23;;;3.45;;
44026;SDS011;29696;55.698;37.460;2023-05-10T05:55:52;6.55;;;2.75;;
44026;SDS011;29696;55.698;37.460;2023-05-10T05:58:20;8.50;;;3.40;;
44026;SDS011;29696;55.698;37.460;2023-05-10T06:00:47;4.32;;;2.22;;
44026;SDS011;29696;55.698;37.460;2023-05-10T06:03:14;4.40;;;2.05;;
44026;SDS011;29696;55.698;37.460;2023-05-10T06:05:40;6.15;;;2.92;;
44026;SDS011;29696;55.698;37.460;2023-05-10T06:08:07;3.63;;;2.60;;
44026;SDS011;29696;55.698;37.460;2023-05-10T06:10:33;3.38;;;2.00;;
44026;SDS011;29696;55.698;37.460;2023-05-10T06:12:59;6.82;;;2.40;;
44026;SDS011;29696;55.698;37.460;2023-05-10T06:15:26;5.45;;;2.70;;
44026;SDS011;29696;55.698;37.460;2023-05-10T06:17:53;5.45;;;2.15;;
44026;SDS011;29696;55.698;37.460;2023-05-10T06:20:19;9.82;;;2.83;;
44026;SDS011;29696;55.698;37.460;2023-05-10T06:22:45;6.95;;;2.67;;
44026;SDS011;29696;55.698;37.460;2023-05-10T06:25:12;9.18;;;2.75;;
44026;SDS011;29696;55.698;37.460;2023-05-10T06:27:40;5.80;;;2.25;;
44026;SDS011;29696;55.698;37.460;2023-05-10T06:30:06;5.05;;;2.67;;
44026;SDS011;29696;55.698;37.460;2023-05-10T06:32:34;10.60;;;3.00;;
44026;SDS011;29696;55.698;37.460;2023-05-10T06:35:01;10.70;;;3.53;;
44026;SDS011;29696;55.698;37.460;2023-05-10T06:37:30;10.02;;;2.97;;
44026;SDS011;29696;55.698;37.460;2023-05-10T06:39:56;9.02;;;2.92;;
44026;SDS011;29696;55.698;37.460;2023-05-10T06:42:22;4.90;;;2.78;;
44026;SDS011;29696;55.698;37.460;2023-05-10T06:44:51;5.93;;;2.92;;
44026;SDS011;29696;55.698;37.460;2023-05-10T06:47:18;4.68;;;2.65;;
44026;SDS011;29696;55.698;37.460;2023-05-10T06:49:44;5.45;;;3.10;;
44026;SDS011;29696;55.698;37.460;2023-05-10T06:52:10;7.25;;;2.00;;
44026;SDS011;29696;55.698;37.460;2023-05-10T06:54:37;3.20;;;2.03;;
44026;SDS011;29696;55.698;37.460;2023-05-10T06:57:03;4.78;;;2.38;;
44026;SDS011;29696;55.698;37.460;2023-05-10T06:59:30;8.18;;;2.15;;
44026;SDS011;29696;55.698;37.460;2023-05-10T07:01:56;6.70;;;2.40;;
44026;SDS011;29696;55.698;37.460;2023-05-10T07:04:23;3.92;;;2.45;;
44026;SDS011;29696;55.698;37.460;2023-05-10T07:06:49;6.40;;;2.08;;
44026;SDS011;29696;55.698;37.460;2023-05-10T07:09:16;7.30;;;2.72;;
44026;SDS011;29696;55.698;37.460;2023-05-10T07:11:42;4.38;;;2.53;;
44026;SDS011;29696;55.698;37.460;2023-05-10T07:14:09;6.82;;;2.33;;
44026;SDS011;29696;55.698;37.460;2023-05-10T07:16:35;2.15;;;1.85;;
44026;SDS011;29696;55.698;37.460;2023-05-10T07:19:02;10.10;;;2.25;;
44026;SDS011;29696;55.698;37.460;2023-05-10T07:21:28;5.30;;;1.88;;
44026;SDS011;29696;55.698;37.460;2023-05-10T07:23:54;4.93;;;2.03;;
44026;SDS011;29696;55.698;37.460;2023-05-10T07:26:21;16.13;;;2.83;;
44026;SDS011;29696;55.698;37.460;2023-05-10T07:28:47;5.07;;;2.15;;
44026;SDS011;29696;55.698;37.460;2023-05-10T07:31:14;6.95;;;1.83;;
44026;SDS011;29696;55.698;37.460;2023-05-10T07:33:40;2.75;;;1.88;;
44026;SDS011;29696;55.698;37.460;2023-05-10T07:36:07;3.08;;;1.75;;
44026;SDS011;29696;55.698;37.460;2023-05-10T07:38:33;2.22;;;1.50;;
44026;SDS011;29696;55.698;37.460;2023-05-10T07:41:00;9.18;;;2.30;;
44026;SDS011;29696;55.698;37.460;2023-05-10T07:43:26;3.97;;;2.00;;
44026;SDS011;29696;55.698;37.460;2023-05-10T07:45:52;5.30;;;2.17;;
44026;SDS011;29696;55.698;37.460;2023-05-10T07:48:19;3.80;;;1.83;;
44026;SDS011;29696;55.698;37.460;2023-05-10T07:50:45;3.72;;;1.50;;
44026;SDS011;29696;55.698;37.460;2023-05-10T07:53:12;1.90;;;1.65;;
44026;SDS011;29696;55.698;37.460;2023-05-10T07:55:38;4.55;;;2.42;;
44026;SDS011;29696;55.698;37.460;2023-05-10T07:58:04;2.08;;;1.80;;
44026;SDS011;29696;55.698;37.460;2023-05-10T08:00:31;2.75;;;1.67;;
44026;SDS011;29696;55.698;37.460;2023-05-10T08:02:57;3.50;;;2.03;;
44026;SDS011;29696;55.698;37.460;2023-05-10T08:05:24;2.67;;;1.65;;
44026;SDS011;29696;55.698;37.460;2023-05-10T08:07:50;2.38;;;1.88;;
44026;SDS011;29696;55.698;37.460;2023-05-10T08:10:17;4.03;;;2.53;;
44026;SDS011;29696;55.698;37.460;2023-05-10T08:12:43;5.88;;;2.15;;
44026;SDS011;29696;55.698;37.460;2023-05-10T08:15:09;2.28;;;1.67;;
44026;SDS011;29696;55.698;37.460;2023-05-10T08:17:36;3.88;;;1.80;;
44026;SDS011;29696;55.698;37.460;2023-05-10T08:20:03;1.60;;;1.48;;
44026;SDS011;29696;55.698;37.460;2023-05-10T08:22:30;3.75;;;1.85;;
44026;SDS011;29696;55.698;37.460;2023-05-10T08:24:56;5.97;;;1.67;;
44026;SDS011;29696;55.698;37.460;2023-05-10T08:27:23;5.35;;;2.05;;
44026;SDS011;29696;55.698;37.460;2023-05-10T08:29:49;5.10;;;2.50;;
44026;SDS011;29696;55.698;37.460;2023-05-10T08:32:16;2.85;;;1.67;;
44026;SDS011;29696;55.698;37.460;2023-05-10T08:34:43;2.15;;;1.77;;
44026;SDS011;29696;55.698;37.460;2023-05-10T08:37:09;3.75;;;2.83;;
44026;SDS011;29696;55.698;37.460;2023-05-10T08:39:38;3.28;;;1.92;;
44026;SDS011;29696;55.698;37.460;2023-05-10T08:42:05;4.18;;;2.45;;
44026;SDS011;29696;55.698;37.460;2023-05-10T08:44:34;1.75;;;1.60;;
44026;SDS011;29696;55.698;37.460;2023-05-10T08:47:04;2.95;;;1.77;;
44026;SDS011;29696;55.698;37.460;2023-05-10T08:49:33;3.72;;;1.80;;
44026;SDS011;29696;55.698;37.460;2023-05-10T08:52:02;2.55;;;1.80;;
44026;SDS011;29696;55.698;37.460;2023-05-10T08:54:32;5.07;;;3.25;;
44026;SDS011;29696;55.698;37.460;2023-05-10T08:56:59;7.22;;;2.58;;
44026;SDS011;29696;55.698;37.460;2023-05-10T08:59:26;2.55;;;1.70;;
44026;SDS011;29696;55.698;37.460;2023-05-10T09:01:53;3.03;;;1.90;;
44026;SDS011;29696;55.698;37.460;2023-05-10T09:04:21;6.05;;;1.70;;
44026;SDS011;29696;55.698;37.460;2023-05-10T09:06:49;4.85;;;2.08;;
44026;SDS011;29696;55.698;37.460;2023-05-10T09:09:15;7.20;;;2.20;;
44026;SDS011;29696;55.698;37.460;2023-05-10T09:11:43;2.97;;;1.52;;
44026;SDS011;29696;55.698;37.460;2023-05-10T09:14:11;2.20;;;1.23;;
44026;SDS011;29696;55.698;37.460;2023-05-10T09:16:39;4.25;;;1.90;;
44026;SDS011;29696;55.698;37.460;2023-05-10T09:19:07;3.03;;;1.73;;
44026;SDS011;29696;55.698;37.460;2023-05-10T09:21:37;5.38;;;1.65;;
44026;SDS011;29696;55.698;37.460;2023-05-10T09:24:05;1.98;;;1.50;;
44026;SDS011;29696;55.698;37.460;2023-05-10T09:26:32;2.45;;;1.70;;
44026;SDS011;29696;55.698;37.460;2023-05-10T09:28:59;2.08;;;1.50;;
44026;SDS011;29696;55.698;37.460;2023-05-10T09:31:45;2.05;;;1.85;;
44026;SDS011;29696;55.698;37.460;2023-05-10T09:34:19;2.25;;;1.35;;
44026;SDS011;29696;55.698;37.460;2023-05-10T09:37:06;3.00;;;1.50;;
44026;SDS011;29696;55.698;37.460;2023-05-10T09:39:35;2.78;;;1.92;;
44026;SDS011;29696;55.698;37.460;2023-05-10T09:42:06;6.82;;;2.28;;
44026;SDS011;29696;55.698;37.460;2023-05-10T09:44:35;2.08;;;1.38;;
44026;SDS011;29696;55.698;37.460;2023-05-10T09:47:02;2.15;;;1.60;;
44026;SDS011;29696;55.698;37.460;2023-05-10T09:49:29;2.35;;;1.63;;
44026;SDS011;29696;55.698;37.460;2023-05-10T09:52:04;6.95;;;5.97;;
44026;SDS011;29696;55.698;37.460;2023-05-10T09:54:32;3.97;;;3.42;;
44026;SDS011;29696;55.698;37.460;2023-05-10T09:56:59;8.32;;;2.38;;
44026;SDS011;29696;55.698;37.460;2023-05-10T09:59:26;2.95;;;1.98;;
44026;SDS011;29696;55.698;37.460;2023-05-10T10:01:57;2.70;;;1.88;;
44026;SDS011;29696;55.698;37.460;2023-05-10T10:04:26;4.68;;;2.53;;
44026;SDS011;29696;55.698;37.460;2023-05-10T10:06:59;3.17;;;1.75;;
44026;SDS011;29696;55.698;37.460;2023-05-10T10:09:28;2.72;;;1.90;;
44026;SDS011;29696;55.698;37.460;2023-05-10T10:11:55;2.15;;;1.98;;
44026;SDS011;29696;55.698;37.460;2023-05-10T10:14:22;1.42;;;1.30;;
44026;SDS011;29696;55.698;37.460;2023-05-10T10:16:50;4.60;;;1.90;;
44026;SDS011;29696;55.698;37.460;2023-05-10T10:19:20;2.80;;;2.22;;
44026;SDS011;29696;55.698;37.460;2023-05-10T10:21:48;2.83;;;2.00;;
44026;SDS011;29696;55.698;37.460;2023-05-10T10:24:16;1.67;;;1.52;;
44026;SDS011;29696;55.698;37.460;2023-05-10T10:26:42;6.25;;;1.65;;
44026;SDS011;29696;55.698;37.460;2023-05-10T10:32:22;4.63;;;2.17;;
44026;SDS011;29696;55.698;37.460;2023-05-10T10:34:54;7.03;;;3.30;;
44026;SDS011;29696;55.698;37.460;2023-05-10T10:37:22;5.00;;;2.22;;
44026;SDS011;29696;55.698;37.460;2023-05-10T10:39:48;2.53;;;2.15;;
44026;SDS011;29696;55.698;37.460;2023-05-10T10:42:43;3.17;;;2.20;;
44026;SDS011;29696;55.698;37.460;2023-05-10T10:45:15;2.40;;;1.98;;
44026;SDS011;29696;55.698;37.460;2023-05-10T10:47:42;7.03;;;2.45;;
44026;SDS011;29696;55.698;37.460;2023-05-10T10:50:10;2.75;;;2.20;;
44026;SDS011;29696;55.698;37.460;2023-05-10T10:52:45;4.50;;;2.17;;
44026;SDS011;29696;55.698;37.460;2023-05-10T10:57:58;4.15;;;2.00;;
44026;SDS011;29696;55.698;37.460;2023-05-10T11:00:30;5.05;;;2.95;;
44026;SDS011;29696;55.698;37.460;2023-05-10T11:05:47;9.77;;;1.88;;
44026;SDS011;29696;55.698;37.460;2023-05-10T11:08:41;7.15;;;2.30;;
44026;SDS011;29696;55.698;37.460;2023-05-10T11:11:13;2.60;;;2.08;;
44026;SDS011;29696;55.698;37.460;2023-05-10T11:13:44;12.57;;;2.92;;
44026;SDS011;29696;55.698;37.460;2023-05-10T11:16:14;4.15;;;2.45;;
44026;SDS011;29696;55.698;37.460;2023-05-10T11:18:52;3.33;;;2.50;;
44026;SDS011;29696;55.698;37.460;2023-05-10T11:21:48;3.78;;;3.45;;
44026;SDS011;29696;55.698;37.460;2023-05-10T11:24:39;6.65;;;2.55;;
44026;SDS011;29696;55.698;37.460;2023-05-10T11:27:05;5.55;;;3.00;;
44026;SDS011;29696;55.698;37.460;2023-05-10T11:29:32;3.97;;;1.98;;
44026;SDS011;29696;55.698;37.460;2023-05-10T11:31:58;3.88;;;2.53;;
44026;SDS011;29696;55.698;37.460;2023-05-10T11:34:29;6.28;;;2.90;;
44026;SDS011;29696;55.698;37.460;2023-05-10T11:36:57;10.20;;;2.90;;
44026;SDS011;29696;55.698;37.460;2023-05-10T11:39:27;5.60;;;2.47;;
44026;SDS011;29696;55.698;37.460;2023-05-10T11:41:54;6.25;;;3.17;;
44026;SDS011;29696;55.698;37.460;2023-05-10T11:44:22;7.18;;;3.47;;
44026;SDS011;29696;55.698;37.460;2023-05-10T11:46:49;3.35;;;2.13;;
44026;SDS011;29696;55.698;37.460;2023-05-10T11:49:15;4.88;;;2.42;;
44026;SDS011;29696;55.698;37.460;2023-05-10T11:51:42;7.50;;;2.90;;
44026;SDS011;29696;55.698;37.460;2023-05-10T11:54:10;4.28;;;2.95;;
44026;SDS011;29696;55.698;37.460;2023-05-10T11:56:40;3.78;;;3.03;;
44026;SDS011;29696;55.698;37.460;2023-05-10T11:59:07;6.68;;;2.55;;
44026;SDS011;29696;55.698;37.460;2023-05-10T12:01:34;6.90;;;3.05;;
44026;SDS011;29696;55.698;37.460;2023-05-10T12:04:01;5.03;;;2.17;;
44026;SDS011;29696;55.698;37.460;2023-05-10T12:06:29;3.78;;;1.92;;
44026;SDS011;29696;55.698;37.460;2023-05-10T12:08:57;7.90;;;3.10;;
44026;SDS011;29696;55.698;37.460;2023-05-10T12:11:24;3.35;;;2.15;;
44026;SDS011;29696;55.698;37.460;2023-05-10T12:13:52;6.15;;;2.40;;
44026;SDS011;29696;55.698;37.460;2023-05-10T12:16:20;3.97;;;2.65;;
44026;SDS011;29696;55.698;37.460;2023-05-10T12:18:48;7.35;;;2.55;;
44026;SDS011;29696;55.698;37.460;2023-05-10T12:21:16;5.28;;;2.38;;
44026;SDS011;29696;55.698;37.460;2023-05-10T12:23:45;4.90;;;2.60;;
44026;SDS011;29696;55.698;37.460;2023-05-10T12:26:12;6.13;;;3.20;;
44026;SDS011;29696;55.698;37.460;2023-05-10T12:28:39;5.65;;;2.17;;
44026;SDS011;29696;55.698;37.460;2023-05-10T12:31:06;3.22;;;1.73;;
44026;SDS011;29696;55.698;37.460;2023-05-10T12:33:40;4.15;;;2.88;;
44026;SDS011;29696;55.698;37.460;2023-05-10T12:36:09;4.18;;;2.33;;
44026;SDS011;29696;55.698;37.460;2023-05-10T12:41:28;4.95;;;2.40;;
44026;SDS011;29696;55.698;37.460;2023-05-10T12:43:54;6.55;;;1.92;;
44026;SDS011;29696;55.698;37.460;2023-05-10T12:46:21;5.32;;;2.40;;
44026;SDS011;29696;55.698;37.460;2023-05-10T12:48:51;5.38;;;2.20;;
44026;SDS011;29696;55.698;37.460;2023-05-10T12:51:20;6.10;;;2.03;;
44026;SDS011;29696;55.698;37.460;2023-05-10T12:53:48;6.47;;;2.55;;
44026;SDS011;29696;55.698;37.460;2023-05-10T12:56:14;3.15;;;2.05;;
44026;SDS011;29696;55.698;37.460;2023-05-10T12:58:41;5.18;;;2.20;;
44026;SDS011;29696;55.698;37.460;2023-05-10T13:01:07;5.45;;;2.25;;
44026;SDS011;29696;55.698;37.460;2023-05-10T13:03:34;4.03;;;1.98;;
44026;SDS011;29696;55.698;37.460;2023-05-10T13:06:00;5.82;;;2.40;;
44026;SDS011;29696;55.698;37.460;2023-05-10T13:08:27;2.53;;;2.00;;
44026;SDS011;29696;55.698;37.460;2023-05-10T13:10:55;6.50;;;2.38;;
44026;SDS011;29696;55.698;37.460;2023-05-10T13:13:22;5.00;;;2.60;;
44026;SDS011;29696;55.698;37.460;2023-05-10T13:15:48;3.70;;;2.53;;
44026;SDS011;29696;55.698;37.460;2023-05-10T13:18:14;7.05;;;3.05;;
44026;SDS011;29696;55.698;37.460;2023-05-10T13:20:41;2.92;;;2.38;;
44026;SDS011;29696;55.698;37.460;2023-05-10T13:23:09;5.43;;;3.45;;
44026;SDS011;29696;55.698;37.460;2023-05-10T13:25:35;7.70;;;2.28;;
44026;SDS011;29696;55.698;37.460;2023-05-10T13:28:02;7.65;;;2.13;;
44026;SDS011;29696;55.698;37.460;2023-05-10T13:30:28;4.32;;;2.20;;
44026;SDS011;29696;55.698;37.460;2023-05-10T13:32:54;2.72;;;2.13;;
44026;SDS011;29696;55.698;37.460;2023-05-10T13:35:21;9.85;;;2.75;;
44026;SDS011;29696;55.698;37.460;2023-05-10T13:37:47;3.08;;;2.10;;
44026;SDS011;29696;55.698;37.460;2023-05-10T13:40:14;5.95;;;2.15;;
44026;SDS011;29696;55.698;37.460;2023-05-10T13:42:41;5.07;;;2.03;;
44026;SDS011;29696;55.698;37.460;2023-05-10T13:45:08;3.95;;;2.63;;
44026;SDS011;29696;55.698;37.460;2023-05-10T13:47:36;4.35;;;2.10;;
44026;SDS011;29696;55.698;37.460;2023-05-10T13:50:03;3.13;;;1.85;;
44026;SDS011;29696;55.698;37.460;2023-05-10T13:52:32;5.85;;;2.22;;
44026;SDS011;29696;55.698;37.460;2023-05-10T13:54:59;7.45;;;2.53;;
44026;SDS011;29696;55.698;37.460;2023-05-10T13:57:25;4.32;;;1.92;;
44026;SDS011;29696;55.698;37.460;2023-05-10T13:59:51;4.05;;;2.08;;
44026;SDS011;29696;55.698;37.460;2023-05-10T14:02:18;5.63;;;1.95;;
44026;SDS011;29696;55.698;37.460;2023-05-10T14:04:45;4.10;;;2.15;;
44026;SDS011;29696;55.698;37.460;2023-05-10T14:07:11;8.23;;;1.88;;
44026;SDS011;29696;55.698;37.460;2023-05-10T14:09:38;5.45;;;2.33;;
44026;SDS011;29696;55.698;37.460;2023-05-10T14:12:04;2.20;;;1.90;;
44026;SDS011;29696;55.698;37.460;2023-05-10T14:14:31;5.28;;;3.03;;
44026;SDS011;29696;55.698;37.460;2023-05-10T14:16:57;4.90;;;2.67;;
44026;SDS011;29696;55.698;37.460;2023-05-10T14:19:25;12.55;;;2.75;;
44026;SDS011;29696;55.698;37.460;2023-05-10T14:21:52;5.55;;;2.95;;
44026;SDS011;29696;55.698;37.460;2023-05-10T14:24:19;5.85;;;2.72;;
44026;SDS011;29696;55.698;37.460;2023-05-10T14:26:45;5.63;;;2.78;;
44026;SDS011;29696;55.698;37.460;2023-05-10T14:29:12;5.18;;;2.00;;
44026;SDS011;29696;55.698;37.460;2023-05-10T14:31:39;5.10;;;2.15;;
44026;SDS011;29696;55.698;37.460;2023-05-10T14:34:06;4.85;;;2.10;;
44026;SDS011;29696;55.698;37.460;2023-05-10T14:36:32;6.10;;;3.53;;
44026;SDS011;29696;55.698;37.460;2023-05-10T14:38:59;3.75;;;1.77;;
44026;SDS011;29696;55.698;37.460;2023-05-10T14:41:26;3.20;;;2.60;;
44026;SDS011;29696;55.698;37.460;2023-05-10T14:43:52;6.72;;;2.17;;
44026;SDS011;29696;55.698;37.460;2023-05-10T14:46:19;7.13;;;2.08;;
44026;SDS011;29696;55.698;37.460;2023-05-10T14:48:45;4.35;;;2.03;;
44026;SDS011;29696;55.698;37.460;2023-05-10T14:51:11;3.65;;;2.22;;
44026;SDS011;29696;55.698;37.460;2023-05-10T14:53:38;6.28;;;2.65;;
44026;SDS011;29696;55.698;37.460;2023-05-10T14:56:04;5.43;;;2.30;;
44026;SDS011;29696;55.698;37.460;2023-05-10T14:58:31;4.00;;;3.08;;
44026;SDS011;29696;55.698;37.460;2023-05-10T15:00:57;5.15;;;2.58;;
44026;SDS011;29696;55.698;37.460;2023-05-10T15:03:24;5.68;;;2.30;;
44026;SDS011;29696;55.698;37.460;2023-05-10T15:05:50;5.80;;;2.92;;